sensor_id;sensor_type;location;lat;lon;timestamp;pressure;altitude;pressure_sealevel;temperature;humidity
8637;BME280;4356;49.068;8.658;2022-11-15T00:01:09;99639.56;;;18.95;43.09
8637;BME280;4356;49.068;8.658;2022-11-15T00:03:38;99632.72;;;18.93;43.03
8637;BME280;4356;49.068;8.658;2022-11-15T00:06:04;99637.09;;;18.94;43.15
8637;BME280;4356;49.068;8.658;2022-11-15T00:08:31;99630.59;;;18.95;43.26
8637;BME280;4356;49.068;8.658;2022-11-15T00:10:59;99621.00;;;18.92;43.00
8637;BME280;4356;49.068;8.658;2022-11-15T00:13:25;99622.63;;;18.93;43.19
8637;BME280;4356;49.068;8.658;2022-11-15T00:15:51;99631.66;;;18.94;42.78
8637;BME280;4356;49.068;8.658;2022-11-15T00:18:17;99625.59;;;18.92;42.88
8637;BME280;4356;49.068;8.658;2022-11-15T00:20:43;99623.72;;;18.92;43.05
8637;BME280;4356;49.068;8.658;2022-11-15T00:23:09;99615.19;;;18.89;42.85
8637;BME280;4356;49.068;8.658;2022-11-15T00:25:35;99621.81;;;18.93;43.04
8637;BME280;4356;49.068;8.658;2022-11-15T00:28:01;99618.50;;;18.91;43.00
8637;BME280;4356;49.068;8.658;2022-11-15T00:30:27;99616.63;;;18.91;42.90
8637;BME280;4356;49.068;8.658;2022-11-15T00:32:53;99619.34;;;18.91;43.33
8637;BME280;4356;49.068;8.658;2022-11-15T00:35:19;99611.97;;;18.92;43.14
8637;BME280;4356;49.068;8.658;2022-11-15T00:37:45;99606.63;;;18.85;43.45
8637;BME280;4356;49.068;8.658;2022-11-15T00:40:13;99601.78;;;18.87;42.90
8637;BME280;4356;49.068;8.658;2022-11-15T00:42:39;99594.91;;;18.85;42.95
8637;BME280;4356;49.068;8.658;2022-11-15T00:45:05;99599.69;;;18.89;43.14
8637;BME280;4356;49.068;8.658;2022-11-15T00:47:30;99595.50;;;18.87;42.94
8637;BME280;4356;49.068;8.658;2022-11-15T00:49:56;99590.06;;;18.87;43.05
8637;BME280;4356;49.068;8.658;2022-11-15T00:52:22;99596.34;;;18.87;43.06
8637;BME280;4356;49.068;8.658;2022-11-15T00:54:48;99595.16;;;18.83;43.18
8637;BME280;4356;49.068;8.658;2022-11-15T00:57:13;99584.88;;;18.85;43.00
8637;BME280;4356;49.068;8.658;2022-11-15T00:59:39;99590.53;;;18.84;43.41
8637;BME280;4356;49.068;8.658;2022-11-15T01:02:04;99593.25;;;18.84;43.37
8637;BME280;4356;49.068;8.658;2022-11-15T01:04:30;99588.25;;;18.81;43.11
8637;BME280;4356;49.068;8.658;2022-11-15T01:06:55;99584.25;;;18.83;43.08
8637;BME280;4356;49.068;8.658;2022-11-15T01:09:21;99589.34;;;18.80;43.52
8637;BME280;4356;49.068;8.658;2022-11-15T01:11:46;99594.31;;;18.83;43.40
8637;BME280;4356;49.068;8.658;2022-11-15T01:14:12;99582.81;;;18.81;43.17
8637;BME280;4356;49.068;8.658;2022-11-15T01:16:37;99587.81;;;18.84;43.34
8637;BME280;4356;49.068;8.658;2022-11-15T01:19:03;99577.38;;;18.81;43.07
8637;BME280;4356;49.068;8.658;2022-11-15T01:21:29;99580.09;;;18.81;43.28
8637;BME280;4356;49.068;8.658;2022-11-15T01:23:56;99580.09;;;18.81;43.13
8637;BME280;4356;49.068;8.658;2022-11-15T01:26:23;99579.88;;;18.82;43.19
8637;BME280;4356;49.068;8.658;2022-11-15T01:28:49;99574.88;;;18.79;43.05
8637;BME280;4356;49.068;8.658;2022-11-15T01:31:18;99576.31;;;18.82;43.33
8637;BME280;4356;49.068;8.658;2022-11-15T01:33:45;99575.72;;;18.80;42.94
8637;BME280;4356;49.068;8.658;2022-11-15T01:36:21;99574.66;;;18.81;43.07
8637;BME280;4356;49.068;8.658;2022-11-15T01:38:56;99567.78;;;18.78;43.03
8637;BME280;4356;49.068;8.658;2022-11-15T01:41:27;99568.63;;;18.79;43.09
8637;BME280;4356;49.068;8.658;2022-11-15T01:43:55;99567.56;;;18.80;43.28
8637;BME280;4356;49.068;8.658;2022-11-15T01:46:23;99561.28;;;18.79;43.06
8637;BME280;4356;49.068;8.658;2022-11-15T01:48:52;99556.91;;;18.78;43.41
8637;BME280;4356;49.068;8.658;2022-11-15T01:51:21;99550.84;;;18.76;43.14
8637;BME280;4356;49.068;8.658;2022-11-15T01:53:52;99542.19;;;18.68;43.33
8637;BME280;4356;49.068;8.658;2022-11-15T01:56:23;99549.78;;;18.77;43.18
8637;BME280;4356;49.068;8.658;2022-11-15T01:58:51;99548.38;;;18.75;42.97
8637;BME280;4356;49.068;8.658;2022-11-15T02:01:19;99539.59;;;18.73;43.19
8637;BME280;4356;49.068;8.658;2022-11-15T02:04:00;99549.41;;;18.74;42.87
8637;BME280;4356;49.068;8.658;2022-11-15T02:06:27;99548.38;;;18.75;43.08
8637;BME280;4356;49.068;8.658;2022-11-15T02:08:53;99541.97;;;18.69;43.12
8637;BME280;4356;49.068;8.658;2022-11-15T02:11:19;99545.06;;;18.73;43.14
8637;BME280;4356;49.068;8.658;2022-11-15T02:13:45;99537.34;;;18.70;43.38
8637;BME280;4356;49.068;8.658;2022-11-15T02:16:29;99541.25;;;18.74;43.05
8637;BME280;4356;49.068;8.658;2022-11-15T02:19:28;99536.88;;;18.73;43.41
8637;BME280;4356;49.068;8.658;2022-11-15T02:30:22;99524.19;;;18.67;43.28
8637;BME280;4356;49.068;8.658;2022-11-15T02:41:49;99506.22;;;18.66;43.39
8637;BME280;4356;49.068;8.658;2022-11-15T02:44:26;99498.28;;;18.64;43.61
8637;BME280;4356;49.068;8.658;2022-11-15T02:47:02;99491.66;;;18.60;43.53
8637;BME280;4356;49.068;8.658;2022-11-15T02:49:39;99480.03;;;18.65;43.59
8637;BME280;4356;49.068;8.658;2022-11-15T02:52:06;99472.97;;;18.64;43.30
8637;BME280;4356;49.068;8.658;2022-11-15T02:54:33;99474.25;;;18.61;43.62
8637;BME280;4356;49.068;8.658;2022-11-15T02:57:04;99479.44;;;18.63;43.43
8637;BME280;4356;49.068;8.658;2022-11-15T03:02:42;99484.44;;;18.66;43.38
8637;BME280;4356;49.068;8.658;2022-11-15T03:05:41;99486.56;;;18.64;43.53
8637;BME280;4356;49.068;8.658;2022-11-15T03:08:30;99479.25;;;18.64;43.57
8637;BME280;4356;49.068;8.658;2022-11-15T03:11:08;99488.69;;;18.62;43.32
8637;BME280;4356;49.068;8.658;2022-11-15T03:14:10;99494.72;;;18.64;43.26
8637;BME280;4356;49.068;8.658;2022-11-15T03:16:45;99489.28;;;18.64;43.52
8637;BME280;4356;49.068;8.658;2022-11-15T03:21:52;99474.25;;;18.61;43.47
8637;BME280;4356;49.068;8.658;2022-11-15T03:24:21;99475.09;;;18.62;43.34
8637;BME280;4356;49.068;8.658;2022-11-15T03:26:50;99473.41;;;18.61;43.50
8637;BME280;4356;49.068;8.658;2022-11-15T03:29:26;99467.16;;;18.60;43.10
8637;BME280;4356;49.068;8.658;2022-11-15T03:32:00;99465.84;;;18.63;43.24
8637;BME280;4356;49.068;8.658;2022-11-15T03:34:51;99469.41;;;18.63;43.50
8637;BME280;4356;49.068;8.658;2022-11-15T03:37:22;99468.56;;;18.63;43.58
8637;BME280;4356;49.068;8.658;2022-11-15T03:39:50;99466.06;;;18.61;43.60
8637;BME280;4356;49.068;8.658;2022-11-15T03:45:29;99462.50;;;18.61;43.34
8637;BME280;4356;49.068;8.658;2022-11-15T03:48:05;99457.06;;;18.61;43.47
8637;BME280;4356;49.068;8.658;2022-11-15T03:50:33;99450.81;;;18.60;43.38
8637;BME280;4356;49.068;8.658;2022-11-15T03:53:00;99457.06;;;18.61;43.42
8637;BME280;4356;49.068;8.658;2022-11-15T03:55:26;99455.78;;;18.63;43.19
8637;BME280;4356;49.068;8.658;2022-11-15T03:57:54;99453.78;;;18.59;43.40
8637;BME280;4356;49.068;8.658;2022-11-15T04:00:21;99456.03;;;18.62;43.43
8637;BME280;4356;49.068;8.658;2022-11-15T04:02:47;99449.50;;;18.63;43.22
8637;BME280;4356;49.068;8.658;2022-11-15T04:05:13;99450.59;;;18.62;43.57
8637;BME280;4356;49.068;8.658;2022-11-15T04:07:38;99453.91;;;18.64;43.47
8637;BME280;4356;49.068;8.658;2022-11-15T04:10:04;99441.59;;;18.61;43.25
8637;BME280;4356;49.068;8.658;2022-11-15T04:12:35;99452.03;;;18.64;43.16
8637;BME280;4356;49.068;8.658;2022-11-15T04:15:12;99449.31;;;18.64;43.34
8637;BME280;4356;49.068;8.658;2022-11-15T04:17:44;99445.50;;;18.65;43.26
8637;BME280;4356;49.068;8.658;2022-11-15T04:20:15;99442.66;;;18.60;43.17
8637;BME280;4356;49.068;8.658;2022-11-15T04:23:01;99450.09;;;18.65;43.04
8637;BME280;4356;49.068;8.658;2022-11-15T04:25:47;99448.69;;;18.62;43.28
8637;BME280;4356;49.068;8.658;2022-11-15T04:28:15;99445.38;;;18.60;43.31
8637;BME280;4356;49.068;8.658;2022-11-15T04:30:40;99443.47;;;18.61;43.19
8637;BME280;4356;49.068;8.658;2022-11-15T04:33:06;99454.34;;;18.61;43.43
8637;BME280;4356;49.068;8.658;2022-11-15T04:35:32;99449.06;;;18.66;43.28
8637;BME280;4356;49.068;8.658;2022-11-15T04:37:58;99436.97;;;18.62;43.48
8637;BME280;4356;49.068;8.658;2022-11-15T04:40:23;99429.84;;;18.61;43.19
8637;BME280;4356;49.068;8.658;2022-11-15T04:42:49;99436.50;;;18.65;43.53
8637;BME280;4356;49.068;8.658;2022-11-15T04:45:15;99436.50;;;18.65;43.46
8637;BME280;4356;49.068;8.658;2022-11-15T04:47:43;99438.41;;;18.64;43.04
8637;BME280;4356;49.068;8.658;2022-11-15T04:50:10;99428.56;;;18.63;43.28
8637;BME280;4356;49.068;8.658;2022-11-15T04:52:40;99430.47;;;18.63;43.22
8637;BME280;4356;49.068;8.658;2022-11-15T04:55:05;99435.69;;;18.64;43.37
8637;BME280;4356;49.068;8.658;2022-11-15T04:57:31;99431.28;;;18.63;43.55
8637;BME280;4356;49.068;8.658;2022-11-15T04:59:57;99430.00;;;18.66;43.32
8637;BME280;4356;49.068;8.658;2022-11-15T05:02:24;99422.28;;;18.63;43.17
8637;BME280;4356;49.068;8.658;2022-11-15T05:05:10;99423.72;;;18.65;43.24
8637;BME280;4356;49.068;8.658;2022-11-15T05:07:35;99417.69;;;18.63;43.15
8637;BME280;4356;49.068;8.658;2022-11-15T05:10:01;99422.09;;;18.64;43.43
8637;BME280;4356;49.068;8.658;2022-11-15T05:12:26;99412.72;;;18.60;43.31
8637;BME280;4356;49.068;8.658;2022-11-15T05:14:52;99419.38;;;18.64;43.19
8637;BME280;4356;49.068;8.658;2022-11-15T05:17:17;99418.28;;;18.65;43.27
8637;BME280;4356;49.068;8.658;2022-11-15T05:19:43;99419.38;;;18.64;43.42
8637;BME280;4356;49.068;8.658;2022-11-15T05:22:09;99413.09;;;18.64;43.22
8637;BME280;4356;49.068;8.658;2022-11-15T05:24:35;99415.22;;;18.62;42.99
8637;BME280;4356;49.068;8.658;2022-11-15T05:27:00;99410.59;;;18.62;43.13
8637;BME280;4356;49.068;8.658;2022-11-15T05:29:26;99402.66;;;18.61;43.19
8637;BME280;4356;49.068;8.658;2022-11-15T05:31:51;99425.84;;;18.63;43.22
8637;BME280;4356;49.068;8.658;2022-11-15T05:34:17;99407.88;;;18.62;42.90
8637;BME280;4356;49.068;8.658;2022-11-15T05:36:44;99408.09;;;18.61;43.30
8637;BME280;4356;49.068;8.658;2022-11-15T05:39:10;99399.13;;;18.60;43.12
8637;BME280;4356;49.068;8.658;2022-11-15T05:41:39;99399.13;;;18.60;43.67
8637;BME280;4356;49.068;8.658;2022-11-15T05:44:09;99400.41;;;18.58;43.31
8637;BME280;4356;49.068;8.658;2022-11-15T05:46:36;99402.66;;;18.61;43.53
8637;BME280;4356;49.068;8.658;2022-11-15T05:49:07;99398.03;;;18.61;43.06
8637;BME280;4356;49.068;8.658;2022-11-15T05:51:35;99402.66;;;18.61;43.36
8637;BME280;4356;49.068;8.658;2022-11-15T05:54:01;99412.72;;;18.60;43.25
8637;BME280;4356;49.068;8.658;2022-11-15T05:56:28;99416.84;;;18.63;43.21
8637;BME280;4356;49.068;8.658;2022-11-15T05:58:55;99410.00;;;18.60;43.44
8637;BME280;4356;49.068;8.658;2022-11-15T06:01:22;99416.72;;;18.58;43.51
8637;BME280;4356;49.068;8.658;2022-11-15T06:03:48;99430.47;;;18.63;43.29
8637;BME280;4356;49.068;8.658;2022-11-15T06:06:13;99428.81;;;18.62;43.35
8637;BME280;4356;49.068;8.658;2022-11-15T06:08:39;99422.78;;;18.60;43.19
8637;BME280;4356;49.068;8.658;2022-11-15T06:11:05;99430.81;;;18.66;43.27
8637;BME280;4356;49.068;8.658;2022-11-15T06:13:32;99428.69;;;18.68;43.10
8637;BME280;4356;49.068;8.658;2022-11-15T06:15:58;99423.03;;;18.70;42.95
8637;BME280;4356;49.068;8.658;2022-11-15T06:18:23;99420.09;;;18.71;42.94
8637;BME280;4356;49.068;8.658;2022-11-15T06:20:49;99399.13;;;18.72;43.19
8637;BME280;4356;49.068;8.658;2022-11-15T06:23:15;99391.91;;;18.77;43.11
8637;BME280;4356;49.068;8.658;2022-11-15T06:25:40;99405.31;;;18.79;42.99
8637;BME280;4356;49.068;8.658;2022-11-15T06:28:06;99404.81;;;18.82;42.84
8637;BME280;4356;49.068;8.658;2022-11-15T06:30:31;99397.25;;;18.84;42.86
8637;BME280;4356;49.068;8.658;2022-11-15T06:33:04;99409.09;;;18.89;42.75
8637;BME280;4356;49.068;8.658;2022-11-15T06:35:33;99395.72;;;18.88;42.85
8637;BME280;4356;49.068;8.658;2022-11-15T06:38:03;99393.00;;;18.88;43.07
8637;BME280;4356;49.068;8.658;2022-11-15T06:40:29;99411.09;;;18.94;42.75
8637;BME280;4356;49.068;8.658;2022-11-15T06:42:59;99407.78;;;18.92;42.74
8637;BME280;4356;49.068;8.658;2022-11-15T06:45:25;99428.03;;;18.96;42.80
8637;BME280;4356;49.068;8.658;2022-11-15T06:47:50;99411.34;;;18.92;42.72
8637;BME280;4356;49.068;8.658;2022-11-15T06:50:16;99421.88;;;19.00;42.90
8637;BME280;4356;49.068;8.658;2022-11-15T06:52:42;99424.97;;;19.04;42.58
8637;BME280;4356;49.068;8.658;2022-11-15T06:55:08;99428.63;;;19.09;42.41
8637;BME280;4356;49.068;8.658;2022-11-15T06:57:34;99412.84;;;19.11;42.62
8637;BME280;4356;49.068;8.658;2022-11-15T07:00:00;99419.13;;;19.12;42.79
8637;BME280;4356;49.068;8.658;2022-11-15T07:02:26;99432.31;;;19.15;42.74
8637;BME280;4356;49.068;8.658;2022-11-15T07:04:51;99427.41;;;19.17;42.69
8637;BME280;4356;49.068;8.658;2022-11-15T07:07:17;99433.00;;;19.22;42.43
8637;BME280;4356;49.068;8.658;2022-11-15T07:09:42;99431.94;;;19.23;42.36
8637;BME280;4356;49.068;8.658;2022-11-15T07:12:08;99432.28;;;19.26;42.45
8637;BME280;4356;49.068;8.658;2022-11-15T07:14:33;99427.66;;;19.27;42.81
8637;BME280;4356;49.068;8.658;2022-11-15T07:16:59;99433.47;;;19.30;42.57
8637;BME280;4356;49.068;8.658;2022-11-15T07:19:25;99426.38;;;19.29;42.65
8637;BME280;4356;49.068;8.658;2022-11-15T07:21:51;99426.38;;;19.29;42.54
8637;BME280;4356;49.068;8.658;2022-11-15T07:24:17;99437.16;;;19.36;42.28
8637;BME280;4356;49.068;8.658;2022-11-15T07:26:43;99426.38;;;19.29;42.31
8637;BME280;4356;49.068;8.658;2022-11-15T07:29:08;99443.66;;;19.35;42.18
8637;BME280;4356;49.068;8.658;2022-11-15T07:31:34;99428.03;;;19.30;42.54
8637;BME280;4356;49.068;8.658;2022-11-15T07:33:59;99441.06;;;19.40;42.41
8637;BME280;4356;49.068;8.658;2022-11-15T07:36:26;99430.19;;;19.40;42.25
8637;BME280;4356;49.068;8.658;2022-11-15T07:38:52;99427.81;;;19.43;42.28
8637;BME280;4356;49.068;8.658;2022-11-15T07:41:17;99429.69;;;19.43;42.30
8637;BME280;4356;49.068;8.658;2022-11-15T07:43:43;99426.38;;;19.41;42.30
8637;BME280;4356;49.068;8.658;2022-11-15T07:46:09;99429.44;;;19.44;42.30
8637;BME280;4356;49.068;8.658;2022-11-15T07:48:38;99410.97;;;19.35;42.31
8637;BME280;4356;49.068;8.658;2022-11-15T07:51:06;99411.81;;;19.35;42.28
8637;BME280;4356;49.068;8.658;2022-11-15T07:53:32;99424.59;;;19.46;41.78
8637;BME280;4356;49.068;8.658;2022-11-15T07:55:57;99423.16;;;19.44;41.98
8637;BME280;4356;49.068;8.658;2022-11-15T07:58:23;99425.66;;;19.45;42.08
8637;BME280;4356;49.068;8.658;2022-11-15T08:00:49;99430.38;;;19.50;42.22
8637;BME280;4356;49.068;8.658;2022-11-15T08:03:15;99433.13;;;19.50;42.12
8637;BME280;4356;49.068;8.658;2022-11-15T08:05:42;99437.03;;;19.54;42.25
8637;BME280;4356;49.068;8.658;2022-11-15T08:08:10;99427.56;;;19.57;42.35
8637;BME280;4356;49.068;8.658;2022-11-15T08:10:36;99417.22;;;19.59;42.16
8637;BME280;4356;49.068;8.658;2022-11-15T08:13:04;99422.44;;;19.60;42.17
8637;BME280;4356;49.068;8.658;2022-11-15T08:15:31;99422.19;;;19.62;42.46
8637;BME280;4356;49.068;8.658;2022-11-15T08:18:00;99423.00;;;19.62;42.55
8637;BME280;4356;49.068;8.658;2022-11-15T08:20:27;99425.16;;;19.60;42.26
8637;BME280;4356;49.068;8.658;2022-11-15T08:22:57;99418.16;;;19.64;42.47
8637;BME280;4356;49.068;8.658;2022-11-15T08:25:23;99432.13;;;19.68;42.36
8637;BME280;4356;49.068;8.658;2022-11-15T08:27:56;99421.47;;;19.66;42.32
8637;BME280;4356;49.068;8.658;2022-11-15T08:30:23;99414.47;;;19.70;42.42
8637;BME280;4356;49.068;8.658;2022-11-15T08:32:50;99413.88;;;19.68;42.46
8637;BME280;4356;49.068;8.658;2022-11-15T08:35:16;99406.88;;;19.72;42.41
8637;BME280;4356;49.068;8.658;2022-11-15T08:37:42;99403.31;;;19.72;42.61
8637;BME280;4356;49.068;8.658;2022-11-15T08:40:08;99395.97;;;19.72;42.50
8637;BME280;4356;49.068;8.658;2022-11-15T08:42:35;99401.78;;;19.76;42.64
8637;BME280;4356;49.068;8.658;2022-11-15T08:45:01;99394.66;;;19.75;42.54
8637;BME280;4356;49.068;8.658;2022-11-15T08:47:26;99388.38;;;19.74;42.48
8637;BME280;4356;49.068;8.658;2022-11-15T08:49:52;99384.31;;;19.77;42.48
8637;BME280;4356;49.068;8.658;2022-11-15T08:52:18;99385.16;;;19.77;42.49
8637;BME280;4356;49.068;8.658;2022-11-15T08:54:43;99381.59;;;19.77;42.28
8637;BME280;4356;49.068;8.658;2022-11-15T08:57:09;99380.53;;;19.78;42.27
8637;BME280;4356;49.068;8.658;2022-11-15T08:59:35;99377.81;;;19.78;42.77
8637;BME280;4356;49.068;8.658;2022-11-15T09:02:02;99378.66;;;19.78;42.56
8637;BME280;4356;49.068;8.658;2022-11-15T09:04:27;99377.81;;;19.78;42.58
8637;BME280;4356;49.068;8.658;2022-11-15T09:06:53;99374.59;;;19.81;42.48
8637;BME280;4356;49.068;8.658;2022-11-15T09:09:19;99371.53;;;19.77;42.56
8637;BME280;4356;49.068;8.658;2022-11-15T09:11:45;99379.00;;;19.82;42.77
8637;BME280;4356;49.068;8.658;2022-11-15T09:14:11;99366.56;;;19.74;42.35
8637;BME280;4356;49.068;8.658;2022-11-15T09:16:38;99366.91;;;19.78;42.45
8637;BME280;4356;49.068;8.658;2022-11-15T09:19:03;99371.63;;;19.82;42.67
8637;BME280;4356;49.068;8.658;2022-11-15T09:21:30;99370.22;;;19.80;42.51
8637;BME280;4356;49.068;8.658;2022-11-15T09:23:55;99363.69;;;19.81;42.49
8637;BME280;4356;49.068;8.658;2022-11-15T09:26:21;99358.97;;;19.76;42.49
8637;BME280;4356;49.068;8.658;2022-11-15T09:28:47;99372.22;;;19.84;42.50
8637;BME280;4356;49.068;8.658;2022-11-15T09:31:12;99351.59;;;19.77;42.64
8637;BME280;4356;49.068;8.658;2022-11-15T09:33:38;99367.34;;;19.86;42.67
8637;BME280;4356;49.068;8.658;2022-11-15T09:36:06;99363.31;;;19.89;42.37
8637;BME280;4356;49.068;8.658;2022-11-15T09:38:33;99360.00;;;19.87;42.56
8637;BME280;4356;49.068;8.658;2022-11-15T09:47:03;99360.34;;;19.90;42.38
8637;BME280;4356;49.068;8.658;2022-11-15T09:49:30;99363.66;;;19.92;42.78
8637;BME280;4356;49.068;8.658;2022-11-15T09:51:57;99365.28;;;19.93;42.54
8637;BME280;4356;49.068;8.658;2022-11-15T09:54:34;99359.59;;;19.95;42.59
8637;BME280;4356;49.068;8.658;2022-11-15T09:57:13;99354.38;;;19.93;42.67
8637;BME280;4356;49.068;8.658;2022-11-15T10:05:10;99354.97;;;19.95;42.78
8637;BME280;4356;49.068;8.658;2022-11-15T10:10:45;99346.31;;;19.98;42.67
8637;BME280;4356;49.068;8.658;2022-11-15T10:13:32;99352.13;;;20.02;42.76
8637;BME280;4356;49.068;8.658;2022-11-15T10:21:48;99344.28;;;20.05;42.69
8637;BME280;4356;49.068;8.658;2022-11-15T10:24:20;99343.19;;;20.06;42.71
8637;BME280;4356;49.068;8.658;2022-11-15T10:26:50;99338.56;;;20.07;42.76
8637;BME280;4356;49.068;8.658;2022-11-15T10:29:23;99330.13;;;20.08;42.73
8637;BME280;4356;49.068;8.658;2022-11-15T10:31:49;99327.91;;;20.05;42.88
8637;BME280;4356;49.068;8.658;2022-11-15T10:34:20;99326.56;;;20.08;42.89
8637;BME280;4356;49.068;8.658;2022-11-15T10:36:58;99331.28;;;20.12;42.90
8637;BME280;4356;49.068;8.658;2022-11-15T10:39:24;99317.06;;;20.10;42.95
8637;BME280;4356;49.068;8.658;2022-11-15T10:41:50;99324.50;;;20.15;42.93
8637;BME280;4356;49.068;8.658;2022-11-15T10:46:44;99325.34;;;20.15;42.87
8637;BME280;4356;49.068;8.658;2022-11-15T10:49:17;99326.53;;;20.19;42.87
8637;BME280;4356;49.068;8.658;2022-11-15T10:54:23;99312.38;;;20.22;42.77
8637;BME280;4356;49.068;8.658;2022-11-15T10:56:52;99308.81;;;20.22;42.86
8637;BME280;4356;49.068;8.658;2022-11-15T10:59:29;99309.66;;;20.22;43.11
8637;BME280;4356;49.068;8.658;2022-11-15T11:01:56;99310.25;;;20.24;42.86
8637;BME280;4356;49.068;8.658;2022-11-15T11:04:22;99302.31;;;20.23;42.97
8637;BME280;4356;49.068;8.658;2022-11-15T11:06:51;99311.66;;;20.27;42.88
8637;BME280;4356;49.068;8.658;2022-11-15T11:11:52;99282.97;;;20.24;42.70
8637;BME280;4356;49.068;8.658;2022-11-15T11:14:26;99295.28;;;20.27;42.72
8637;BME280;4356;49.068;8.658;2022-11-15T11:17:28;99278.66;;;20.28;42.62
8637;BME280;4356;49.068;8.658;2022-11-15T11:25:36;99262.31;;;20.28;42.98
8637;BME280;4356;49.068;8.658;2022-11-15T11:28:19;99249.97;;;20.26;42.82
8637;BME280;4356;49.068;8.658;2022-11-15T11:31:08;99258.22;;;20.31;42.94
8637;BME280;4356;49.068;8.658;2022-11-15T11:36:32;99243.19;;;20.28;42.63
8637;BME280;4356;49.068;8.658;2022-11-15T11:39:11;99254.69;;;20.30;42.84
8637;BME280;4356;49.068;8.658;2022-11-15T11:47:01;99243.53;;;20.32;42.57
8637;BME280;4356;49.068;8.658;2022-11-15T11:49:33;99220.47;;;20.23;42.62
8637;BME280;4356;49.068;8.658;2022-11-15T11:54:43;99225.84;;;20.34;42.60
8637;BME280;4356;49.068;8.658;2022-11-15T11:57:38;99214.56;;;20.31;42.79
8637;BME280;4356;49.068;8.658;2022-11-15T12:00:24;99215.72;;;20.35;42.65
8637;BME280;4356;49.068;8.658;2022-11-15T12:05:48;99212.19;;;20.34;42.71
8637;BME280;4356;49.068;8.658;2022-11-15T12:08:20;99206.47;;;20.36;42.83
8637;BME280;4356;49.068;8.658;2022-11-15T12:10:54;99202.66;;;20.37;42.88
8637;BME280;4356;49.068;8.658;2022-11-15T12:13:26;99206.81;;;20.39;42.80
8637;BME280;4356;49.068;8.658;2022-11-15T12:16:07;99195.56;;;20.36;43.08
8637;BME280;4356;49.068;8.658;2022-11-15T12:18:37;99191.25;;;20.40;42.93
8637;BME280;4356;49.068;8.658;2022-11-15T12:21:14;99177.28;;;20.36;42.98
8637;BME280;4356;49.068;8.658;2022-11-15T12:23:46;99185.28;;;20.43;43.10
8637;BME280;4356;49.068;8.658;2022-11-15T12:26:20;99192.13;;;20.45;43.04
8637;BME280;4356;49.068;8.658;2022-11-15T12:28:59;99175.69;;;20.40;42.99
8637;BME280;4356;49.068;8.658;2022-11-15T12:31:42;99180.16;;;20.46;42.98
8637;BME280;4356;49.068;8.658;2022-11-15T12:36:49;99171.13;;;20.46;43.05
8637;BME280;4356;49.068;8.658;2022-11-15T12:39:16;99163.53;;;20.48;43.11
8637;BME280;4356;49.068;8.658;2022-11-15T13:17:42;99103.94;;;20.62;43.43
8637;BME280;4356;49.068;8.658;2022-11-15T13:22:44;99099.59;;;20.66;43.15
8637;BME280;4356;49.068;8.658;2022-11-15T13:25:19;99084.31;;;20.65;43.31
8637;BME280;4356;49.068;8.658;2022-11-15T13:27:48;99070.09;;;20.63;43.31
8637;BME280;4356;49.068;8.658;2022-11-15T13:30:27;99074.53;;;20.69;43.00
8637;BME280;4356;49.068;8.658;2022-11-15T13:32:54;99074.84;;;20.72;42.75
8637;BME280;4356;49.068;8.658;2022-11-15T13:35:26;99063.09;;;20.72;42.80
8637;BME280;4356;49.068;8.658;2022-11-15T13:37:54;99048.25;;;20.63;42.81
8637;BME280;4356;49.068;8.658;2022-11-15T13:40:28;99063.97;;;20.77;42.89
8637;BME280;4356;49.068;8.658;2022-11-15T13:42:56;99051.41;;;20.76;42.56
8637;BME280;4356;49.068;8.658;2022-11-15T13:45:23;99054.69;;;20.78;42.66
8637;BME280;4356;49.068;8.658;2022-11-15T13:47:58;99050.63;;;20.81;42.96
8637;BME280;4356;49.068;8.658;2022-11-15T13:50:29;99046.25;;;20.80;42.72
8637;BME280;4356;49.068;8.658;2022-11-15T13:52:59;99048.47;;;20.83;42.62
8637;BME280;4356;49.068;8.658;2022-11-15T13:55:27;99048.19;;;20.84;42.73
8637;BME280;4356;49.068;8.658;2022-11-15T13:57:57;99048.78;;;20.86;42.62
8637;BME280;4356;49.068;8.658;2022-11-15T14:02:55;99035.66;;;20.83;42.67
8637;BME280;4356;49.068;8.658;2022-11-15T14:05:23;99036.75;;;20.87;42.82
8637;BME280;4356;49.068;8.658;2022-11-15T14:08:02;99030.50;;;20.87;42.90
8637;BME280;4356;49.068;8.658;2022-11-15T14:10:29;99029.13;;;20.89;42.59
8637;BME280;4356;49.068;8.658;2022-11-15T14:12:56;99022.31;;;20.87;42.37
8637;BME280;4356;49.068;8.658;2022-11-15T14:15:29;99018.22;;;20.89;42.61
8637;BME280;4356;49.068;8.658;2022-11-15T14:17:55;99015.75;;;20.88;42.87
8637;BME280;4356;49.068;8.658;2022-11-15T14:20:37;99017.94;;;20.91;42.74
8637;BME280;4356;49.068;8.658;2022-11-15T14:23:06;99001.81;;;20.89;43.07
8637;BME280;4356;49.068;8.658;2022-11-15T14:25:53;98999.09;;;20.89;43.10
8637;BME280;4356;49.068;8.658;2022-11-15T14:30:51;98983.53;;;20.90;43.13
8637;BME280;4356;49.068;8.658;2022-11-15T14:33:30;98988.47;;;20.93;43.16
8637;BME280;4356;49.068;8.658;2022-11-15T14:36:01;98977.53;;;20.93;43.16
8637;BME280;4356;49.068;8.658;2022-11-15T14:38:27;98977.31;;;20.94;42.92
8637;BME280;4356;49.068;8.658;2022-11-15T14:40:56;98963.31;;;20.91;42.70
8637;BME280;4356;49.068;8.658;2022-11-15T14:43:22;98969.91;;;20.95;42.94
8637;BME280;4356;49.068;8.658;2022-11-15T14:45:47;98968.03;;;20.95;42.95
8637;BME280;4356;49.068;8.658;2022-11-15T14:48:19;98958.19;;;20.94;43.28
8637;BME280;4356;49.068;8.658;2022-11-15T14:50:45;98946.69;;;20.92;43.02
8637;BME280;4356;49.068;8.658;2022-11-15T14:53:17;98947.50;;;20.93;42.72
8637;BME280;4356;49.068;8.658;2022-11-15T14:55:45;98939.31;;;20.93;42.79
8637;BME280;4356;49.068;8.658;2022-11-15T14:58:11;98943.97;;;20.92;42.59
8637;BME280;4356;49.068;8.658;2022-11-15T15:00:38;98942.00;;;20.88;42.62
8637;BME280;4356;49.068;8.658;2022-11-15T15:03:05;98945.31;;;20.90;42.66
8637;BME280;4356;49.068;8.658;2022-11-15T15:05:36;98942.03;;;20.93;42.49
8637;BME280;4356;49.068;8.658;2022-11-15T15:08:02;98936.34;;;20.94;42.64
8637;BME280;4356;49.068;8.658;2022-11-15T15:10:32;98923.72;;;20.88;42.64
8637;BME280;4356;49.068;8.658;2022-11-15T15:13:01;98916.88;;;20.86;42.82
8637;BME280;4356;49.068;8.658;2022-11-15T15:15:35;98931.69;;;20.95;42.83
8637;BME280;4356;49.068;8.658;2022-11-15T15:18:02;98919.63;;;20.91;42.58
8637;BME280;4356;49.068;8.658;2022-11-15T15:20:28;98913.94;;;20.92;42.67
8637;BME280;4356;49.068;8.658;2022-11-15T15:22:54;98909.81;;;20.90;42.68
8637;BME280;4356;49.068;8.658;2022-11-15T15:25:27;98915.00;;;20.91;42.80
8637;BME280;4356;49.068;8.658;2022-11-15T15:27:54;98925.41;;;20.94;42.66
8637;BME280;4356;49.068;8.658;2022-11-15T15:30:23;98920.75;;;20.95;42.63
8637;BME280;4356;49.068;8.658;2022-11-15T15:32:49;98898.63;;;20.91;42.62